createdAt,value
2023-01-15T00:00:28.767Z,12.80
2023-01-15T00:02:57.752Z,12.80
2023-01-15T00:05:26.016Z,12.80
2023-01-15T00:07:54.203Z,12.80
2023-01-15T00:10:22.386Z,12.70
2023-01-15T00:12:51.849Z,12.70
2023-01-15T00:15:20.160Z,12.70
2023-01-15T00:17:49.690Z,12.60
2023-01-15T00:20:18.299Z,12.50
2023-01-15T00:22:46.510Z,12.50
2023-01-15T00:25:32.012Z,12.40
2023-01-15T00:28:01.765Z,12.30
2023-01-15T00:30:30.262Z,12.30
2023-01-15T00:33:00.838Z,12.20
2023-01-15T00:35:28.982Z,12.10
2023-01-15T00:37:57.181Z,12.00
2023-01-15T00:40:25.432Z,12.00
2023-01-15T00:42:54.303Z,12.00
2023-01-15T00:45:23.028Z,12.00
2023-01-15T00:47:51.624Z,11.90
2023-01-15T00:50:21.337Z,11.90
2023-01-15T00:52:49.486Z,11.90
2023-01-15T00:55:17.788Z,11.90
2023-01-15T00:57:46.060Z,11.90
2023-01-15T01:00:14.969Z,11.90
2023-01-15T01:02:43.273Z,12.00
2023-01-15T01:05:11.561Z,11.90
2023-01-15T01:07:41.111Z,11.90
2023-01-15T01:10:10.206Z,11.90
2023-01-15T01:12:38.744Z,11.90
2023-01-15T01:15:09.862Z,11.90
2023-01-15T01:17:38.492Z,11.90
2023-01-15T01:20:07.462Z,11.90
2023-01-15T01:22:35.626Z,11.90
2023-01-15T01:25:05.539Z,11.90
2023-01-15T01:27:33.724Z,11.90
2023-01-15T01:30:02.058Z,11.80
2023-01-15T01:32:30.217Z,11.80
2023-01-15T01:34:58.550Z,11.80
2023-01-15T01:37:26.726Z,11.80
2023-01-15T01:39:55.227Z,11.80
2023-01-15T01:42:25.978Z,11.70
2023-01-15T01:45:09.254Z,11.70
2023-01-15T01:47:37.699Z,11.70
2023-01-15T01:50:11.001Z,11.60
2023-01-15T01:52:43.223Z,11.60
2023-01-15T01:55:13.249Z,11.60
2023-01-15T01:57:43.799Z,11.50
2023-01-15T02:00:14.129Z,11.50
2023-01-15T02:02:45.268Z,11.50
2023-01-15T02:05:20.654Z,11.40
2023-01-15T02:07:48.970Z,11.40
2023-01-15T02:10:17.841Z,11.30
2023-01-15T02:12:56.455Z,11.30
2023-01-15T02:15:32.588Z,11.20
2023-01-15T02:18:09.564Z,11.20
2023-01-15T02:20:41.536Z,11.10
2023-01-15T02:23:21.843Z,11.00
2023-01-15T02:26:03.784Z,11.00
2023-01-15T02:28:35.728Z,10.90
2023-01-15T02:31:06.044Z,10.90
2023-01-15T02:33:39.495Z,10.80
2023-01-15T02:36:10.388Z,10.80
2023-01-15T02:38:44.870Z,10.70
2023-01-15T02:41:17.943Z,10.60
2023-01-15T02:43:51.686Z,10.50
2023-01-15T02:46:23.238Z,10.50
2023-01-15T02:48:54.184Z,10.40
2023-01-15T02:51:27.003Z,10.40
2023-01-15T02:53:58.116Z,10.30
2023-01-15T02:56:31.270Z,10.30
2023-01-15T02:59:11.313Z,10.20
2023-01-15T03:01:45.873Z,10.20
2023-01-15T03:04:21.887Z,10.10
2023-01-15T03:06:55.729Z,10.10
2023-01-15T03:09:25.538Z,10.00
2023-01-15T03:12:05.817Z,10.00
2023-01-15T03:14:41.478Z,9.90
2023-01-15T03:17:15.386Z,9.90
2023-01-15T03:19:49.417Z,9.90
2023-01-15T03:22:23.189Z,9.80
2023-01-15T03:24:54.600Z,9.80
2023-01-15T03:27:23.620Z,9.80
2023-01-15T03:29:56.617Z,9.70
2023-01-15T03:32:25.445Z,9.70
2023-01-15T03:34:55.461Z,9.70
2023-01-15T03:37:25.877Z,9.70
2023-01-15T03:39:54.750Z,9.60
2023-01-15T03:42:35.823Z,9.60
2023-01-15T03:45:11.980Z,9.50
2023-01-15T03:47:51.095Z,9.50
2023-01-15T03:50:25.264Z,9.50
2023-01-15T03:53:04.124Z,9.50
2023-01-15T03:55:38.313Z,9.40
2023-01-15T03:58:12.898Z,9.40
2023-01-15T04:00:45.695Z,9.40
2023-01-15T04:03:15.297Z,9.30
2023-01-15T04:05:45.037Z,9.40
2023-01-15T04:08:17.035Z,9.30
2023-01-15T04:10:54.405Z,9.30
2023-01-15T04:13:22.852Z,9.30
2023-01-15T04:15:53.466Z,9.30
2023-01-15T04:18:22.294Z,9.30
2023-01-15T04:20:50.677Z,9.30
2023-01-15T04:23:18.971Z,9.30
2023-01-15T04:25:47.126Z,9.30
2023-01-15T04:28:15.321Z,9.30
2023-01-15T04:30:43.722Z,9.30
2023-01-15T04:33:13.361Z,9.30
2023-01-15T04:35:41.544Z,9.30
2023-01-15T04:38:09.691Z,9.40
2023-01-15T04:40:55.060Z,9.40
2023-01-15T04:43:40.902Z,9.40
2023-01-15T04:46:09.133Z,9.40
2023-01-15T04:48:39.734Z,9.50
2023-01-15T04:51:08.697Z,9.50
2023-01-15T04:53:36.948Z,9.50
2023-01-15T04:56:06.366Z,9.50
2023-01-15T04:58:35.811Z,9.50
2023-01-15T05:01:05.201Z,9.50
2023-01-15T05:03:33.447Z,9.50
2023-01-15T05:06:04.560Z,9.50
2023-01-15T05:08:33.233Z,9.50
2023-01-15T05:11:03.949Z,9.50
2023-01-15T05:13:33.511Z,9.50
2023-01-15T05:16:12.966Z,9.50
2023-01-15T05:18:41.573Z,9.40
2023-01-15T05:21:18.395Z,9.50
2023-01-15T05:23:46.931Z,9.40
2023-01-15T05:26:15.116Z,9.40
2023-01-15T05:28:43.322Z,9.40
2023-01-15T05:31:12.920Z,9.40
2023-01-15T05:33:41.225Z,9.40
2023-01-15T05:36:11.639Z,9.30
2023-01-15T05:38:41.861Z,9.30
2023-01-15T05:41:27.581Z,9.30
2023-01-15T05:43:56.079Z,9.20
2023-01-15T05:46:24.675Z,9.20
2023-01-15T05:48:53.100Z,9.20
2023-01-15T05:51:21.589Z,9.20
2023-01-15T05:53:51.121Z,9.10
2023-01-15T05:56:19.273Z,9.10
2023-01-15T05:58:47.501Z,9.10
2023-01-15T06:01:16.183Z,9.10
2023-01-15T06:03:44.406Z,9.10
2023-01-15T06:06:15.861Z,9.00
2023-01-15T06:08:44.394Z,9.00
2023-01-15T06:11:14.104Z,9.00
2023-01-15T06:13:42.267Z,9.00
2023-01-15T06:16:11.896Z,9.00
2023-01-15T06:18:40.521Z,9.00
2023-01-15T06:21:10.325Z,9.00
2023-01-15T06:23:38.979Z,9.00
2023-01-15T06:26:08.827Z,9.00
2023-01-15T06:28:38.443Z,9.00
2023-01-15T06:31:07.483Z,9.00
2023-01-15T06:33:35.690Z,9.00
2023-01-15T06:36:05.640Z,9.00
2023-01-15T06:38:33.780Z,8.90
2023-01-15T06:41:02.603Z,8.90
2023-01-15T06:43:48.382Z,8.90
2023-01-15T06:46:36.143Z,8.90
2023-01-15T06:49:04.357Z,8.90
2023-01-15T06:51:32.517Z,8.90
2023-01-15T06:54:00.677Z,8.90
2023-01-15T06:56:28.819Z,8.80
2023-01-15T06:58:57.447Z,8.80
2023-01-15T07:01:30.944Z,8.90
2023-01-15T07:03:59.190Z,8.90
2023-01-15T07:06:27.354Z,8.90
2023-01-15T07:08:55.549Z,8.90
2023-01-15T07:11:23.701Z,8.80
2023-01-15T07:13:51.923Z,8.80
2023-01-15T07:16:28.809Z,8.80
2023-01-15T07:18:58.579Z,8.80
2023-01-15T07:21:26.809Z,8.80
2023-01-15T07:23:55.620Z,8.80
2023-01-15T07:26:23.759Z,8.80
2023-01-15T07:28:52.043Z,8.80
2023-01-15T07:31:20.472Z,8.80
2023-01-15T07:33:48.627Z,8.80
2023-01-15T07:36:18.187Z,8.80
2023-01-15T07:38:46.351Z,8.80
2023-01-15T07:41:31.970Z,8.80
2023-01-15T07:44:29.270Z,8.80
2023-01-15T07:47:15.121Z,8.80
2023-01-15T07:49:48.312Z,8.80
2023-01-15T07:52:19.518Z,8.80
2023-01-15T07:54:48.906Z,8.80
2023-01-15T07:57:20.117Z,8.80
2023-01-15T07:59:48.424Z,8.80
2023-01-15T08:02:17.249Z,8.70
2023-01-15T08:04:47.509Z,8.80
2023-01-15T08:07:17.326Z,8.80
2023-01-15T08:09:45.485Z,8.80
2023-01-15T08:12:31.116Z,8.80
2023-01-15T08:15:14.528Z,8.80
2023-01-15T08:17:44.526Z,8.80
2023-01-15T08:20:15.618Z,8.80
2023-01-15T08:22:45.756Z,8.80
2023-01-15T08:25:15.918Z,8.80
2023-01-15T08:27:44.473Z,8.80
2023-01-15T08:30:15.015Z,8.80
2023-01-15T08:32:43.326Z,8.70
2023-01-15T08:35:13.097Z,8.70
2023-01-15T08:37:41.850Z,8.80
2023-01-15T08:40:13.477Z,8.70
2023-01-15T08:42:42.115Z,8.70
2023-01-15T08:45:11.301Z,8.70
2023-01-15T08:47:39.492Z,8.70
2023-01-15T08:50:09.532Z,8.70
2023-01-15T08:52:39.052Z,8.70
2023-01-15T08:55:08.628Z,8.70
2023-01-15T08:57:38.764Z,8.70
2023-01-15T09:00:09.191Z,8.70
2023-01-15T09:02:37.400Z,8.70
2023-01-15T09:05:06.277Z,8.70
2023-01-15T09:07:35.595Z,8.70
2023-01-15T09:10:04.563Z,8.70
2023-01-15T09:12:32.848Z,8.70
2023-01-15T09:15:03.204Z,8.70
2023-01-15T09:17:33.117Z,8.70
2023-01-15T09:20:03.095Z,8.70
2023-01-15T09:22:31.627Z,8.70
2023-01-15T09:25:00.222Z,8.80
2023-01-15T09:27:29.156Z,8.80
2023-01-15T09:29:58.033Z,8.70
2023-01-15T09:32:27.814Z,8.80
2023-01-15T09:34:56.056Z,8.80
2023-01-15T09:37:24.310Z,8.80
2023-01-15T09:39:52.554Z,8.80
2023-01-15T09:42:33.874Z,8.80
2023-01-15T09:45:23.656Z,8.80
2023-01-15T09:48:12.023Z,8.80
2023-01-15T09:50:55.628Z,8.80
2023-01-15T09:53:36.394Z,8.80
2023-01-15T09:56:05.836Z,8.80
2023-01-15T09:58:36.677Z,8.90
2023-01-15T10:01:05.354Z,8.80
2023-01-15T10:03:42.959Z,8.80
2023-01-15T10:06:16.549Z,8.80
2023-01-15T10:08:47.171Z,8.90
2023-01-15T10:11:47.130Z,8.90
2023-01-15T10:14:29.581Z,8.90
2023-01-15T10:16:57.870Z,8.90
2023-01-15T10:19:40.233Z,9.00
2023-01-15T10:22:18.770Z,9.00
2023-01-15T10:24:53.253Z,9.00
2023-01-15T10:27:24.387Z,9.10
2023-01-15T10:29:57.352Z,9.10
2023-01-15T10:32:36.367Z,9.20
2023-01-15T10:35:27.613Z,9.20
2023-01-15T10:38:01.470Z,9.20
2023-01-15T10:40:43.567Z,9.30
2023-01-15T10:43:15.122Z,9.30
2023-01-15T10:45:47.965Z,9.30
2023-01-15T10:48:25.249Z,9.40
2023-01-15T10:50:56.078Z,9.40
2023-01-15T10:53:32.350Z,9.40
2023-01-15T10:56:06.360Z,9.50
2023-01-15T10:58:41.277Z,9.50
2023-01-15T11:01:14.438Z,9.50
2023-01-15T11:03:44.648Z,9.50
2023-01-15T11:06:17.274Z,9.50
2023-01-15T11:12:06.311Z,9.60
2023-01-15T11:14:54.515Z,9.60
2023-01-15T11:17:41.891Z,9.60
2023-01-15T11:20:21.642Z,9.60
2023-01-15T11:22:51.514Z,9.60
2023-01-15T11:25:29.748Z,9.60
2023-01-15T11:28:00.310Z,9.60
2023-01-15T11:30:32.994Z,9.60
2023-01-15T11:33:04.886Z,9.60
2023-01-15T11:35:34.749Z,9.60
2023-01-15T11:38:09.127Z,9.60
2023-01-15T11:40:37.735Z,9.60
2023-01-15T11:43:38.169Z,9.60
2023-01-15T11:46:23.655Z,9.60
2023-01-15T11:49:09.328Z,9.60
2023-01-15T11:51:43.221Z,9.60
2023-01-15T11:54:15.957Z,9.60
2023-01-15T11:56:46.563Z,9.60
2023-01-15T11:59:19.950Z,9.60
2023-01-15T12:01:54.957Z,9.70
2023-01-15T12:04:38.160Z,9.70
2023-01-15T12:07:07.758Z,9.60
2023-01-15T12:10:01.786Z,9.70
2023-01-15T12:12:41.258Z,9.70
2023-01-15T12:15:19.198Z,9.70
2023-01-15T12:18:19.311Z,9.70
2023-01-15T12:20:58.231Z,9.70
2023-01-15T12:23:45.988Z,9.70
2023-01-15T12:26:24.612Z,9.70
2023-01-15T12:29:00.003Z,9.70
2023-01-15T12:31:34.931Z,9.70
2023-01-15T12:34:07.497Z,9.70
2023-01-15T12:36:40.118Z,9.70
2023-01-15T12:39:18.549Z,9.70
2023-01-15T12:42:10.901Z,9.60
2023-01-15T12:45:04.805Z,9.70
2023-01-15T12:47:41.123Z,9.70
2023-01-15T12:50:23.632Z,9.60
2023-01-15T12:52:58.780Z,9.70
2023-01-15T12:55:30.290Z,9.60
2023-01-15T12:58:02.195Z,9.60
2023-01-15T13:00:36.088Z,9.60
2023-01-15T13:03:17.133Z,9.60
2023-01-15T13:05:49.972Z,9.60
2023-01-15T13:08:25.222Z,9.60
2023-01-15T13:10:54.165Z,9.60
2023-01-15T13:13:25.656Z,9.70
2023-01-15T13:16:17.995Z,9.70
2023-01-15T13:18:58.633Z,9.70
2023-01-15T13:21:32.119Z,9.70
2023-01-15T13:24:17.867Z,9.80
2023-01-15T13:27:17.816Z,9.80
2023-01-15T13:30:01.623Z,9.90
2023-01-15T13:32:34.815Z,9.90
2023-01-15T13:35:10.381Z,9.90
2023-01-15T13:37:44.174Z,9.90
2023-01-15T13:40:19.386Z,9.90
2023-01-15T13:42:49.187Z,9.90
2023-01-15T13:45:33.746Z,9.90
2023-01-15T13:48:06.905Z,9.90
2023-01-15T13:50:37.442Z,9.90
2023-01-15T13:53:14.779Z,9.90
2023-01-15T13:55:51.117Z,9.90
2023-01-15T13:58:23.587Z,9.90
2023-01-15T14:01:03.146Z,9.90
2023-01-15T14:03:33.248Z,9.90
2023-01-15T14:06:03.284Z,9.90
2023-01-15T14:08:40.370Z,9.90
2023-01-15T14:11:34.800Z,10.00
2023-01-15T14:14:43.707Z,9.90
2023-01-15T14:17:37.102Z,10.00
2023-01-15T14:20:39.897Z,9.90
2023-01-15T14:23:24.762Z,10.00
2023-01-15T14:26:06.343Z,9.90
2023-01-15T14:28:48.047Z,10.00
2023-01-15T14:31:44.169Z,10.00
2023-01-15T14:34:18.337Z,10.00
2023-01-15T14:36:57.522Z,10.00
2023-01-15T14:39:50.842Z,10.00
2023-01-15T14:42:45.801Z,10.00
2023-01-15T14:45:25.313Z,10.00
2023-01-15T14:47:55.276Z,9.90
2023-01-15T14:50:34.545Z,10.00
2023-01-15T14:53:18.525Z,9.90
2023-01-15T14:55:50.306Z,9.90
2023-01-15T14:58:31.330Z,10.00
2023-01-15T15:01:03.553Z,10.00
2023-01-15T15:03:37.002Z,10.00
2023-01-15T15:06:08.811Z,9.90
2023-01-15T15:08:37.259Z,10.00
2023-01-15T15:11:28.176Z,10.00
2023-01-15T15:13:58.663Z,10.00
2023-01-15T15:16:29.608Z,10.00
2023-01-15T15:19:05.985Z,10.00
2023-01-15T15:21:40.601Z,10.00
2023-01-15T15:24:18.370Z,10.00
2023-01-15T15:26:46.578Z,10.00
2023-01-15T15:29:16.492Z,10.00
2023-01-15T15:31:48.218Z,10.10
2023-01-15T15:34:23.428Z,10.10
2023-01-15T15:36:53.265Z,10.00
2023-01-15T15:39:26.847Z,10.10
2023-01-15T15:42:14.973Z,10.10
2023-01-15T15:45:08.062Z,10.10
2023-01-15T15:47:57.317Z,10.10
2023-01-15T15:50:27.779Z,10.10
2023-01-15T15:52:58.234Z,10.00
2023-01-15T15:55:33.458Z,10.10
2023-01-15T15:58:04.063Z,10.10
2023-01-15T16:00:35.179Z,10.10
2023-01-15T16:03:09.029Z,10.10
2023-01-15T16:05:37.303Z,10.10
2023-01-15T16:08:20.841Z,10.10
2023-01-15T16:10:51.938Z,10.10
2023-01-15T16:13:26.279Z,10.10
2023-01-15T16:15:56.908Z,10.10
2023-01-15T16:18:28.292Z,10.10
2023-01-15T16:20:58.323Z,10.10
2023-01-15T16:23:30.031Z,10.10
2023-01-15T16:26:01.852Z,10.10
2023-01-15T16:28:36.736Z,10.10
2023-01-15T16:31:05.391Z,10.10
2023-01-15T16:33:33.601Z,10.10
2023-01-15T16:36:05.023Z,10.00
2023-01-15T16:38:37.703Z,10.00
2023-01-15T16:41:06.205Z,10.00
2023-01-15T16:43:50.284Z,9.90
2023-01-15T16:46:20.740Z,9.90
2023-01-15T16:48:49.264Z,9.90
2023-01-15T16:51:34.927Z,9.80
2023-01-15T16:54:05.825Z,9.80
2023-01-15T16:56:59.137Z,9.80
2023-01-15T17:00:04.154Z,9.80
2023-01-15T17:02:42.901Z,9.80
2023-01-15T17:05:25.887Z,9.80
2023-01-15T17:07:55.937Z,9.80
2023-01-15T17:10:31.326Z,9.80
2023-01-15T17:13:00.066Z,9.80
2023-01-15T17:15:42.539Z,9.80
2023-01-15T17:18:28.696Z,9.80
2023-01-15T17:20:57.211Z,9.80
2023-01-15T17:23:28.695Z,9.80
2023-01-15T17:25:59.412Z,9.80
2023-01-15T17:28:27.772Z,9.80
2023-01-15T17:31:00.505Z,9.90
2023-01-15T17:33:28.965Z,9.90
2023-01-15T17:36:00.696Z,9.80
2023-01-15T17:38:28.983Z,9.90
2023-01-15T17:41:00.401Z,9.90
2023-01-15T17:43:28.628Z,9.90
2023-01-15T17:45:56.795Z,9.90
2023-01-15T17:48:24.976Z,9.90
2023-01-15T17:50:54.582Z,9.90
2023-01-15T17:53:23.026Z,9.90
2023-01-15T17:56:08.311Z,9.90
2023-01-15T17:58:55.092Z,9.90
2023-01-15T18:01:43.075Z,9.90
2023-01-15T18:04:35.921Z,9.80
2023-01-15T18:07:04.952Z,9.80
2023-01-15T18:09:34.352Z,9.80
2023-01-15T18:12:02.683Z,9.80
2023-01-15T18:14:32.267Z,9.80
2023-01-15T18:17:00.456Z,9.80
2023-01-15T18:19:28.767Z,9.80
2023-01-15T18:21:56.945Z,9.80
2023-01-15T18:24:25.314Z,9.80
2023-01-15T18:26:53.486Z,9.80
2023-01-15T18:29:21.718Z,9.70
2023-01-15T18:31:51.319Z,9.70
2023-01-15T18:34:19.536Z,9.70
2023-01-15T18:36:47.759Z,9.70
2023-01-15T18:39:15.938Z,9.70
2023-01-15T18:42:01.691Z,9.70
2023-01-15T18:44:58.822Z,9.70
2023-01-15T18:47:28.676Z,9.70
2023-01-15T18:49:57.082Z,9.60
2023-01-15T18:52:42.530Z,9.60
2023-01-15T18:55:11.289Z,9.60
2023-01-15T18:57:39.515Z,9.60
2023-01-15T19:00:09.029Z,9.60
2023-01-15T19:02:38.765Z,9.50
2023-01-15T19:05:07.743Z,9.50
2023-01-15T19:07:35.904Z,9.50
2023-01-15T19:10:04.152Z,9.40
2023-01-15T19:12:35.056Z,9.40
2023-01-15T19:15:23.857Z,9.40
2023-01-15T19:18:11.265Z,9.30
2023-01-15T19:20:39.512Z,9.30
2023-01-15T19:23:07.729Z,9.30
2023-01-15T19:25:40.344Z,9.20
2023-01-15T19:28:10.252Z,9.20
2023-01-15T19:30:40.053Z,9.20
2023-01-15T19:33:10.716Z,9.10
2023-01-15T19:35:40.601Z,9.10
2023-01-15T19:38:10.607Z,9.10
2023-01-15T19:40:42.047Z,9.10
2023-01-15T19:43:28.581Z,9.00
2023-01-15T19:46:14.249Z,9.10
2023-01-15T19:49:01.626Z,9.00
2023-01-15T19:52:00.985Z,9.00
2023-01-15T19:54:43.040Z,9.00
2023-01-15T19:57:11.229Z,9.10
2023-01-15T19:59:39.490Z,9.10
2023-01-15T20:02:07.681Z,9.00
2023-01-15T20:04:37.198Z,9.00
2023-01-15T20:07:05.377Z,9.00
2023-01-15T20:09:33.549Z,9.00
2023-01-15T20:12:19.236Z,9.00
2023-01-15T20:14:47.501Z,9.00
2023-01-15T20:17:15.643Z,9.00
2023-01-15T20:19:45.166Z,9.00
2023-01-15T20:22:13.319Z,9.00
2023-01-15T20:24:43.951Z,9.00
2023-01-15T20:27:12.470Z,9.00
2023-01-15T20:29:40.942Z,9.00
2023-01-15T20:32:09.243Z,9.00
2023-01-15T20:34:38.738Z,9.00
2023-01-15T20:37:09.122Z,9.00
2023-01-15T20:39:37.294Z,9.00
2023-01-15T20:42:23.001Z,9.00
2023-01-15T20:44:57.123Z,9.00
2023-01-15T20:47:44.881Z,9.00
2023-01-15T20:50:15.938Z,9.00
2023-01-15T20:52:48.639Z,9.00
2023-01-15T20:55:17.652Z,9.10
2023-01-15T20:57:46.743Z,9.00
2023-01-15T21:00:17.222Z,9.00
2023-01-15T21:02:45.836Z,9.00
2023-01-15T21:05:14.357Z,9.00
2023-01-15T21:07:42.841Z,9.00
2023-01-15T21:10:14.075Z,9.00
2023-01-15T21:12:42.465Z,9.00
2023-01-15T21:15:11.754Z,8.90
2023-01-15T21:17:40.323Z,8.90
2023-01-15T21:20:10.683Z,8.90
2023-01-15T21:22:39.194Z,8.90
2023-01-15T21:25:09.920Z,8.80
2023-01-15T21:27:39.473Z,8.80
2023-01-15T21:30:09.386Z,8.80
2023-01-15T21:32:37.722Z,8.80
2023-01-15T21:35:06.445Z,8.80
2023-01-15T21:37:34.617Z,8.80
2023-01-15T21:40:02.774Z,8.80
2023-01-15T21:42:48.580Z,8.80
2023-01-15T21:45:18.297Z,8.80
2023-01-15T21:47:46.475Z,8.80
2023-01-15T21:50:14.659Z,8.90
2023-01-15T21:52:42.830Z,8.90
2023-01-15T21:55:13.240Z,8.90
2023-01-15T21:57:41.522Z,8.90
2023-01-15T22:00:11.951Z,8.90
2023-01-15T22:02:41.509Z,8.90
2023-01-15T22:05:10.301Z,8.90
2023-01-15T22:07:38.477Z,8.90
2023-01-15T22:10:07.695Z,8.90
2023-01-15T22:12:39.472Z,8.90
2023-01-15T22:15:08.510Z,8.90
2023-01-15T22:17:36.729Z,8.90
2023-01-15T22:20:08.160Z,8.90
2023-01-15T22:22:38.872Z,8.90
2023-01-15T22:25:08.888Z,8.90
2023-01-15T22:27:40.864Z,8.90
2023-01-15T22:30:09.820Z,8.90
2023-01-15T22:32:38.228Z,8.90
2023-01-15T22:35:09.130Z,8.90
2023-01-15T22:37:37.292Z,8.80
2023-01-15T22:40:06.542Z,8.80
2023-01-15T22:42:34.741Z,8.80
2023-01-15T22:45:04.072Z,8.70
2023-01-15T22:47:32.266Z,8.60
2023-01-15T22:50:00.475Z,8.60
2023-01-15T22:52:30.102Z,8.60
2023-01-15T22:54:58.275Z,8.50
2023-01-15T22:57:26.428Z,8.50
2023-01-15T22:59:54.617Z,8.50
2023-01-15T23:02:43.411Z,8.40
2023-01-15T23:05:12.349Z,8.40
2023-01-15T23:07:41.902Z,8.40
2023-01-15T23:10:12.754Z,8.40
2023-01-15T23:12:41.307Z,8.40
2023-01-15T23:15:12.410Z,8.40
2023-01-15T23:17:40.853Z,8.30
2023-01-15T23:20:10.938Z,8.30
2023-01-15T23:22:39.126Z,8.30
2023-01-15T23:25:10.033Z,8.30
2023-01-15T23:27:38.400Z,8.30
2023-01-15T23:30:07.702Z,8.30
2023-01-15T23:32:35.909Z,8.30
2023-01-15T23:35:04.117Z,8.30
2023-01-15T23:37:32.244Z,8.30
2023-01-15T23:40:00.379Z,8.30
2023-01-15T23:42:47.262Z,8.30
2023-01-15T23:45:32.580Z,8.30
2023-01-15T23:48:00.761Z,8.30
2023-01-15T23:50:28.926Z,8.30
2023-01-15T23:52:57.110Z,8.30
2023-01-15T23:55:25.293Z,8.30
2023-01-15T23:57:54.834Z,8.30
